Time;durP1;ratioP1;P1;durP2;ratioP2;P2;SDS_P1;SDS_P2;PMS_P1;PMS_P2;Temp;Humidity;BMP_temperature;BMP_pressure;BME280_temperature;BME280_humidity;BME280_pressure;Samples;Min_cycle;Max_cycle;Signal;HPM_P1;HPM_P2
2022/05/09 00:02:08;;;;;;;1.30;1.30;;;24.30;54.20;;;;;;5046071;28;43745;-73
2022/05/09 00:04:38;;;;;;;1.17;1.17;;;24.20;54.30;;;;;;5045576;28;43996;-73
2022/05/09 00:07:06;;;;;;;1.20;1.20;;;24.20;54.20;;;;;;5027800;28;45355;-73
2022/05/09 00:09:34;;;;;;;1.10;1.10;;;24.20;54.20;;;;;;5043289;28;44752;-72
2022/05/09 00:12:02;;;;;;;1.20;1.20;;;24.20;54.20;;;;;;5045936;28;43884;-73
2022/05/09 00:14:30;;;;;;;1.00;1.00;;;24.20;54.30;;;;;;5046200;28;44248;-73
2022/05/09 00:16:58;;;;;;;1.10;1.10;;;24.20;54.30;;;;;;5045724;28;43952;-72
2022/05/09 00:19:26;;;;;;;1.20;1.20;;;24.20;54.20;;;;;;5041208;28;44709;-73
2022/05/09 00:21:58;;;;;;;1.20;1.20;;;24.20;54.20;;;;;;5045328;28;43817;-74
2022/05/09 00:24:26;;;;;;;1.13;1.13;;;24.20;54.30;;;;;;5045953;28;43952;-72
2022/05/09 00:26:54;;;;;;;1.10;1.10;;;24.20;54.30;;;;;;5045115;28;44037;-74
2022/05/09 00:29:22;;;;;;;1.10;1.10;;;24.20;54.40;;;;;;5045483;28;44117;-73
2022/05/09 00:31:51;;;;;;;1.20;1.20;;;24.20;54.30;;;;;;5044591;28;44063;-73
2022/05/09 00:34:21;;;;;;;1.20;1.20;;;24.20;54.30;;;;;;5046138;28;44112;-73
2022/05/09 00:36:49;;;;;;;1.10;1.10;;;24.20;54.40;;;;;;5038490;28;44946;-73
2022/05/09 00:39:19;;;;;;;0.93;0.93;;;24.20;54.40;;;;;;5038588;28;43424;-74
2022/05/09 00:41:46;;;;;;;1.17;1.17;;;24.20;54.50;;;;;;5038830;28;43369;-75
2022/05/09 00:44:16;;;;;;;1.10;1.10;;;24.10;54.50;;;;;;5039592;28;43492;-74
2022/05/09 00:46:45;;;;;;;1.13;1.13;;;24.10;54.60;;;;;;5038624;28;43953;-74
2022/05/09 00:49:18;;;;;;;1.20;1.20;;;24.10;54.50;;;;;;5039320;28;44026;-74
2022/05/09 00:51:47;;;;;;;1.20;1.20;;;24.10;55.10;;;;;;5045129;28;43959;-73
2022/05/09 00:54:19;;;;;;;1.27;1.27;;;24.10;54.50;;;;;;5045951;28;43456;-73
2022/05/09 00:56:49;;;;;;;1.10;1.10;;;24.10;54.50;;;;;;5045146;28;43762;-73
2022/05/09 00:59:17;;;;;;;1.20;1.20;;;24.10;54.50;;;;;;5045821;28;44051;-73
2022/05/09 01:01:45;;;;;;;1.40;1.40;;;24.10;54.50;;;;;;5045104;28;44004;-72
2022/05/09 01:04:17;;;;;;;1.20;1.20;;;24.10;54.60;;;;;;5027722;28;43845;-73
2022/05/09 01:06:45;;;;;;;1.10;1.10;;;24.10;54.70;;;;;;5044708;28;43993;-72
2022/05/09 01:09:13;;;;;;;1.23;1.23;;;24.10;54.70;;;;;;5045391;28;43810;-71
2022/05/09 01:11:43;;;;;;;1.07;1.07;;;24.10;54.80;;;;;;5044535;28;44109;-72
2022/05/09 01:14:14;;;;;;;1.30;1.30;;;24.10;54.60;;;;;;5027284;28;44117;-73
2022/05/09 01:16:42;;;;;;;1.20;1.20;;;24.00;54.60;;;;;;5045085;28;43997;-71
2022/05/09 01:19:16;;;;;;;1.20;1.20;;;24.10;54.70;;;;;;5045147;28;43528;-72
2022/05/09 01:21:45;;;;;;;1.20;1.20;;;24.10;54.70;;;;;;5044841;28;44036;-72
2022/05/09 01:24:15;;;;;;;1.13;1.13;;;24.10;54.50;;;;;;5048590;28;43963;-73
2022/05/09 01:26:43;;;;;;;1.27;1.17;;;24.10;54.60;;;;;;5047671;28;43999;-72
2022/05/09 01:29:14;;;;;;;1.20;1.20;;;24.10;54.60;;;;;;5030004;28;44750;-73
2022/05/09 01:31:42;;;;;;;1.30;1.30;;;24.10;54.60;;;;;;5048654;28;43909;-72
2022/05/09 01:34:11;;;;;;;1.20;1.20;;;24.10;54.50;;;;;;5048775;28;43954;-72
2022/05/09 01:36:38;;;;;;;1.10;1.10;;;24.10;54.60;;;;;;5047269;28;43964;-73
2022/05/09 01:39:10;;;;;;;1.10;1.10;;;24.00;54.60;;;;;;5048016;28;43965;-71
2022/05/09 01:41:39;;;;;;;1.30;1.30;;;24.00;54.70;;;;;;5047351;28;44019;-72
2022/05/09 01:44:10;;;;;;;1.20;1.20;;;24.00;54.70;;;;;;5048393;28;44334;-73
2022/05/09 01:49:29;;;;;;;1.23;1.23;;;24.00;54.80;;;;;;5047369;28;43766;-71
2022/05/09 01:49:32;;;;;;;1.20;1.20;;;24.00;54.80;;;;;;5043838;28;44090;-72
2022/05/09 01:52:00;;;;;;;1.20;1.20;;;24.00;54.80;;;;;;5048192;28;43398;-73
2022/05/09 01:54:30;;;;;;;1.33;1.33;;;23.90;54.70;;;;;;5048758;28;43953;-71
2022/05/09 01:57:01;;;;;;;1.10;1.10;;;24.00;54.80;;;;;;5047651;28;44000;-71
2022/05/09 01:59:29;;;;;;;1.30;1.30;;;24.00;55.00;;;;;;5045977;28;45232;-72
2022/05/09 02:01:59;;;;;;;1.17;1.17;;;24.00;54.90;;;;;;5047777;28;43370;-72
2022/05/09 02:04:29;;;;;;;1.13;1.13;;;23.90;54.90;;;;;;5048266;28;43941;-73
2022/05/09 02:06:58;;;;;;;1.17;1.17;;;23.90;54.90;;;;;;5047490;28;44888;-72
2022/05/09 02:09:26;;;;;;;1.17;1.17;;;23.90;54.90;;;;;;5047645;28;44122;-72
2022/05/09 02:11:55;;;;;;;1.20;1.20;;;23.90;55.00;;;;;;5029324;28;43407;-72
2022/05/09 02:14:23;;;;;;;1.20;1.20;;;23.90;54.90;;;;;;5047942;28;43968;-72
2022/05/09 02:16:51;;;;;;;1.07;1.07;;;23.90;54.90;;;;;;5047166;28;44841;-71
2022/05/09 02:19:19;;;;;;;1.00;1.00;;;23.90;54.90;;;;;;5047427;28;43831;-71
2022/05/09 02:21:47;;;;;;;1.20;1.20;;;23.90;55.00;;;;;;5047209;28;44005;-72
2022/05/09 02:24:15;;;;;;;1.20;1.20;;;23.90;55.00;;;;;;5048544;28;44115;-72
2022/05/09 02:26:43;;;;;;;1.20;1.20;;;23.90;55.00;;;;;;5046932;28;44055;-71
2022/05/09 02:29:13;;;;;;;1.20;1.20;;;23.80;55.00;;;;;;5047162;28;43919;-72
2022/05/09 02:31:41;;;;;;;1.30;1.30;;;23.80;55.00;;;;;;5046907;28;43995;-71
2022/05/09 02:34:09;;;;;;;1.23;1.23;;;23.80;55.20;;;;;;5046545;28;44084;-72
2022/05/09 02:36:37;;;;;;;1.30;1.30;;;23.80;55.20;;;;;;5028774;28;46087;-72
2022/05/09 02:39:05;;;;;;;1.30;1.30;;;23.70;55.30;;;;;;5047014;28;44156;-72
2022/05/09 02:41:33;;;;;;;1.10;1.10;;;23.70;55.30;;;;;;5046592;28;43933;-72
2022/05/09 02:44:01;;;;;;;1.27;1.27;;;23.70;55.40;;;;;;5047901;28;43748;-71
2022/05/09 02:46:30;;;;;;;1.10;1.10;;;23.70;55.40;;;;;;5028793;28;44212;-72
2022/05/09 02:48:59;;;;;;;1.20;1.20;;;23.70;55.60;;;;;;5046827;28;43439;-72
2022/05/09 02:51:27;;;;;;;1.20;1.20;;;23.60;55.40;;;;;;5028926;28;44391;-72
2022/05/09 02:53:58;;;;;;;1.20;1.20;;;23.60;55.40;;;;;;5047493;28;44056;-72
2022/05/09 02:56:26;;;;;;;1.33;1.33;;;23.60;55.40;;;;;;5047330;28;43901;-73
2022/05/09 02:58:54;;;;;;;1.40;1.40;;;23.60;55.90;;;;;;5035477;28;43988;-72
2022/05/09 03:01:22;;;;;;;1.20;1.20;;;23.50;56.00;;;;;;5046975;28;44096;-71
2022/05/09 03:06:38;;;;;;;1.20;1.20;;;23.30;56.30;;;;;;5046335;28;43928;-71
2022/05/09 03:09:06;;;;;;;1.20;1.20;;;23.30;56.50;;;;;;5046630;28;44096;-71
2022/05/09 03:11:34;;;;;;;1.40;1.40;;;23.30;56.80;;;;;;5046181;28;44059;-71
2022/05/09 03:14:02;;;;;;;1.40;1.40;;;23.20;56.60;;;;;;5047030;28;43883;-71
2022/05/09 03:16:30;;;;;;;1.27;1.27;;;23.20;56.80;;;;;;5028008;28;45780;-72
2022/05/09 03:18:59;;;;;;;1.30;1.30;;;23.20;56.90;;;;;;5028206;28;45063;-72
2022/05/09 03:21:30;;;;;;;1.30;1.20;;;23.20;56.80;;;;;;5028501;28;43978;-72
2022/05/09 03:23:58;;;;;;;1.23;1.23;;;23.20;57.00;;;;;;5046955;28;44021;-71
2022/05/09 03:26:26;;;;;;;1.00;1.00;;;23.10;57.00;;;;;;5046525;28;43859;-72
2022/05/09 03:28:54;;;;;;;1.20;1.20;;;23.10;57.10;;;;;;5045836;28;43956;-72
2022/05/09 03:31:22;;;;;;;1.50;1.40;;;23.10;57.00;;;;;;5046456;28;43972;-72
2022/05/09 03:33:51;;;;;;;1.10;1.10;;;23.10;57.20;;;;;;5044895;28;44007;-73
2022/05/09 03:36:20;;;;;;;1.37;1.30;;;23.00;57.30;;;;;;5027808;28;46359;-71
2022/05/09 03:38:48;;;;;;;1.20;1.20;;;23.00;57.40;;;;;;5045570;28;44053;-71
2022/05/09 03:41:20;;;;;;;1.30;1.30;;;23.00;57.70;;;;;;5046274;28;43886;-71
2022/05/09 03:43:48;;;;;;;1.20;1.20;;;22.90;57.70;;;;;;5046390;28;43912;-71
2022/05/09 03:46:16;;;;;;;1.30;1.30;;;22.90;57.70;;;;;;5045935;28;44990;-72
2022/05/09 03:48:44;;;;;;;1.30;1.30;;;22.90;57.80;;;;;;5027522;28;44376;-72
2022/05/09 03:51:12;;;;;;;1.23;1.23;;;22.90;57.90;;;;;;5046425;28;44021;-72
2022/05/09 03:53:42;;;;;;;1.30;1.30;;;22.80;57.90;;;;;;5045927;28;44017;-71
2022/05/09 03:56:10;;;;;;;1.40;1.40;;;22.80;58.10;;;;;;5045161;28;44850;-72
2022/05/09 03:58:38;;;;;;;1.40;1.40;;;22.70;58.10;;;;;;5046311;28;44021;-73
2022/05/09 04:01:07;;;;;;;1.10;1.10;;;22.70;58.10;;;;;;5046753;28;43984;-72
2022/05/09 04:03:35;;;;;;;1.17;1.17;;;22.70;58.40;;;;;;5046706;28;43885;-72
2022/05/09 04:06:04;;;;;;;1.40;1.40;;;22.60;58.30;;;;;;5046566;28;44008;-72
2022/05/09 04:08:31;;;;;;;1.47;1.47;;;22.60;58.30;;;;;;5045939;28;43404;-71
2022/05/09 04:11:01;;;;;;;1.40;1.40;;;22.60;58.40;;;;;;5046615;28;43383;-72
2022/05/09 04:13:29;;;;;;;1.37;1.37;;;22.60;58.40;;;;;;5046880;28;44365;-72
2022/05/09 04:18:42;;;;;;;1.30;1.30;;;22.60;58.60;;;;;;5046354;28;43475;-72
2022/05/09 04:21:11;;;;;;;1.27;1.27;;;22.50;58.60;;;;;;5028304;28;43785;-72
2022/05/09 04:23:40;;;;;;;1.50;1.50;;;22.40;58.90;;;;;;5046588;28;43974;-71
2022/05/09 04:26:10;;;;;;;1.30;1.30;;;22.30;59.10;;;;;;5045975;28;45059;-71
2022/05/09 04:28:38;;;;;;;1.43;1.43;;;22.10;59.40;;;;;;5046059;28;44000;-72
2022/05/09 04:31:05;;;;;;;1.40;1.40;;;22.00;60.00;;;;;;5046237;28;43954;-73
2022/05/09 04:33:33;;;;;;;1.47;1.47;;;21.80;60.70;;;;;;5046229;28;44017;-71
2022/05/09 04:36:03;;;;;;;1.40;1.40;;;21.70;61.20;;;;;;5045810;28;43948;-72
2022/05/09 04:38:33;;;;;;;2.30;1.30;;;21.50;61.60;;;;;;5039093;28;43996;-71
2022/05/09 04:41:02;;;;;;;1.30;1.30;;;21.50;62.00;;;;;;5045665;28;44068;-72
2022/05/09 04:43:33;;;;;;;1.40;1.40;;;21.40;62.20;;;;;;5040368;28;43837;-72
2022/05/09 04:46:01;;;;;;;1.30;1.30;;;21.30;62.50;;;;;;5045871;28;44499;-72
2022/05/09 04:48:29;;;;;;;1.30;1.30;;;21.20;62.60;;;;;;5046012;28;43799;-72
2022/05/09 04:50:58;;;;;;;1.40;1.40;;;21.20;62.80;;;;;;5046287;28;43849;-72
2022/05/09 04:53:26;;;;;;;1.40;1.40;;;21.20;63.10;;;;;;5046162;28;43949;-71
2022/05/09 04:55:56;;;;;;;1.30;1.30;;;21.10;63.10;;;;;;5045703;28;43926;-73
2022/05/09 04:58:24;;;;;;;1.50;1.50;;;21.10;63.20;;;;;;5047549;28;44145;-71
2022/05/09 05:00:53;;;;;;;1.40;1.40;;;21.10;62.90;;;;;;5049175;28;44044;-72
2022/05/09 05:03:21;;;;;;;1.30;1.30;;;21.10;62.80;;;;;;5050146;28;43944;-72
2022/05/09 05:05:51;;;;;;;1.20;1.20;;;21.20;62.60;;;;;;5049130;28;43677;-72
2022/05/09 05:08:19;;;;;;;1.47;1.47;;;21.50;62.20;;;;;;5049529;28;44146;-72
2022/05/09 05:10:52;;;;;;;1.50;1.50;;;21.70;61.40;;;;;;5049045;28;43940;-72
2022/05/09 05:13:23;;;;;;;1.40;1.40;;;21.90;60.60;;;;;;5049864;28;43985;-72
2022/05/09 05:15:53;;;;;;;1.40;1.40;;;22.20;59.90;;;;;;5049048;28;44063;-73
2022/05/09 05:18:21;;;;;;;1.20;1.20;;;22.40;59.30;;;;;;5048913;28;43993;-73
2022/05/09 05:20:49;;;;;;;1.33;1.33;;;22.60;58.80;;;;;;5049119;28;44072;-72
2022/05/09 05:23:17;;;;;;;1.33;1.33;;;22.80;58.40;;;;;;5049585;28;43965;-71
2022/05/09 05:25:47;;;;;;;1.40;1.40;;;22.90;58.10;;;;;;5049037;28;43917;-72
2022/05/09 05:28:15;;;;;;;1.30;1.30;;;23.00;57.70;;;;;;5049080;28;43857;-72
2022/05/09 05:30:44;;;;;;;1.30;1.30;;;23.10;57.50;;;;;;5031175;28;43939;-71
2022/05/09 05:33:13;;;;;;;1.20;1.20;;;23.10;57.40;;;;;;5049221;28;43942;-72
2022/05/09 05:35:41;;;;;;;1.30;1.30;;;23.10;57.40;;;;;;5048457;28;43970;-72
2022/05/09 05:38:09;;;;;;;1.20;1.20;;;23.20;57.40;;;;;;5048692;28;44020;-72
2022/05/09 05:40:37;;;;;;;1.30;1.30;;;23.20;57.30;;;;;;5048592;28;44086;-72
2022/05/09 05:43:05;;;;;;;1.20;1.20;;;23.20;57.20;;;;;;5049445;28;43475;-72
2022/05/09 05:45:33;;;;;;;1.30;1.30;;;23.20;57.20;;;;;;5048228;28;44392;-71
2022/05/09 05:48:01;;;;;;;1.10;1.10;;;23.20;57.10;;;;;;5030343;28;45290;-72
2022/05/09 05:50:30;;;;;;;1.30;1.30;;;23.20;57.00;;;;;;5049087;28;43981;-71
2022/05/09 05:52:58;;;;;;;1.13;1.13;;;23.20;56.80;;;;;;5049259;28;43929;-72
2022/05/09 05:55:26;;;;;;;1.30;1.30;;;23.30;56.90;;;;;;5048302;28;44053;-71
2022/05/09 05:57:54;;;;;;;1.30;1.30;;;23.30;56.70;;;;;;5048034;28;43475;-72
2022/05/09 06:00:22;;;;;;;1.47;1.47;;;23.30;56.70;;;;;;5048813;28;43727;-71
2022/05/09 06:02:50;;;;;;;1.30;1.30;;;23.30;56.60;;;;;;5045175;28;44334;-72
2022/05/09 06:05:19;;;;;;;1.30;1.30;;;23.40;56.70;;;;;;5030070;28;45741;-71
2022/05/09 06:07:48;;;;;;;1.50;1.40;;;23.40;56.60;;;;;;5048037;28;44044;-72
2022/05/09 06:10:16;;;;;;;1.30;1.30;;;23.40;56.40;;;;;;5030391;28;43942;-71
2022/05/09 06:12:47;;;;;;;1.10;1.10;;;23.40;56.40;;;;;;5048927;28;43940;-72
2022/05/09 06:15:31;;;;;;;1.17;1.17;;;23.40;56.30;;;;;;5048486;28;45118;-72
2022/05/09 06:18:01;;;;;;;1.27;1.27;;;23.50;56.40;;;;;;5048178;28;43814;-72
2022/05/09 06:20:30;;;;;;;1.50;1.50;;;23.50;56.30;;;;;;5048510;28;43449;-72
2022/05/09 06:23:00;;;;;;;1.40;1.40;;;23.50;56.30;;;;;;5048340;28;43910;-72
2022/05/09 06:25:29;;;;;;;1.30;1.30;;;23.50;56.10;;;;;;5048174;28;43961;-72
2022/05/09 06:27:59;;;;;;;1.30;1.30;;;23.50;56.00;;;;;;5029695;28;44413;-72
2022/05/09 06:30:27;;;;;;;1.40;1.40;;;23.60;56.10;;;;;;5029887;28;44026;-73
2022/05/09 06:32:55;;;;;;;1.27;1.27;;;23.60;55.90;;;;;;5048500;28;43871;-72
2022/05/09 06:35:26;;;;;;;1.30;1.30;;;23.60;55.90;;;;;;5029668;28;45405;-72
2022/05/09 06:37:56;;;;;;;1.37;1.37;;;23.60;55.80;;;;;;5047605;28;43366;-71
2022/05/09 06:40:26;;;;;;;1.20;1.20;;;23.60;55.80;;;;;;5047990;28;44015;-71
2022/05/09 06:42:55;;;;;;;1.20;1.20;;;23.70;55.80;;;;;;5048251;28;43945;-72
2022/05/09 06:45:27;;;;;;;1.17;1.17;;;23.70;56.40;;;;;;5029655;28;44723;-72
2022/05/09 06:47:55;;;;;;;1.20;1.20;;;23.70;55.60;;;;;;5029191;28;45268;-71
2022/05/09 06:50:30;;;;;;;1.20;1.20;;;23.70;55.60;;;;;;5048116;28;43444;-71
2022/05/09 06:53:01;;;;;;;1.30;1.30;;;23.70;55.60;;;;;;5048424;28;43913;-73
2022/05/09 06:55:46;;;;;;;1.10;1.10;;;23.80;55.60;;;;;;5047759;28;44052;-72
2022/05/09 06:58:16;;;;;;;1.23;1.23;;;23.80;55.60;;;;;;5041431;28;43946;-71
2022/05/09 07:00:44;;;;;;;1.20;1.20;;;23.80;55.60;;;;;;5041885;28;43418;-72
2022/05/09 07:03:13;;;;;;;1.10;1.10;;;23.80;55.50;;;;;;5048274;28;44249;-72
2022/05/09 07:05:43;;;;;;;1.30;1.30;;;23.80;55.50;;;;;;5047393;28;43883;-71
2022/05/09 07:08:11;;;;;;;1.10;1.10;;;23.80;55.50;;;;;;5047356;28;43847;-72
2022/05/09 07:10:39;;;;;;;1.10;1.10;;;23.80;55.40;;;;;;5047433;28;43993;-72
2022/05/09 07:13:08;;;;;;;1.20;1.20;;;23.90;55.50;;;;;;5030081;28;43992;-73
2022/05/09 07:15:39;;;;;;;1.30;1.30;;;23.90;55.50;;;;;;5047323;28;45122;-73
2022/05/09 07:18:08;;;;;;;1.30;1.30;;;23.90;55.40;;;;;;5047209;28;43360;-72
2022/05/09 07:20:38;;;;;;;1.40;1.40;;;23.90;55.40;;;;;;5047005;28;43995;-72
2022/05/09 07:23:07;;;;;;;1.30;1.30;;;23.90;55.40;;;;;;5048091;28;43881;-72
2022/05/09 07:25:36;;;;;;;1.23;1.23;;;23.90;55.40;;;;;;5047368;28;44860;-71
2022/05/09 07:28:05;;;;;;;1.30;1.30;;;23.90;55.30;;;;;;5047580;28;43401;-71
2022/05/09 07:30:35;;;;;;;1.40;1.30;;;23.90;55.30;;;;;;5047340;28;44064;-73
2022/05/09 07:33:03;;;;;;;1.20;1.20;;;23.90;55.20;;;;;;5047540;28;43502;-71
2022/05/09 07:35:32;;;;;;;1.10;1.10;;;24.00;55.30;;;;;;5028724;28;46163;-71
2022/05/09 07:38:00;;;;;;;1.10;1.10;;;24.00;55.20;;;;;;5045302;28;44674;-72
2022/05/09 07:40:33;;;;;;;1.10;1.10;;;24.00;55.20;;;;;;5047093;28;43963;-72
2022/05/09 07:43:01;;;;;;;1.00;1.00;;;24.00;55.30;;;;;;5047561;28;43921;-72
2022/05/09 07:45:29;;;;;;;1.20;1.20;;;24.00;55.20;;;;;;5046983;28;43975;-71
2022/05/09 07:47:58;;;;;;;1.20;1.20;;;24.00;55.30;;;;;;5047098;28;44004;-71
2022/05/09 07:50:26;;;;;;;1.20;1.20;;;24.00;55.30;;;;;;5047174;28;44192;-71
2022/05/09 07:52:54;;;;;;;1.37;1.37;;;24.00;55.20;;;;;;5047327;28;43989;-72
2022/05/09 07:55:22;;;;;;;1.30;1.30;;;24.00;55.20;;;;;;5044943;28;45533;-72
2022/05/09 07:57:50;;;;;;;1.20;1.20;;;24.00;55.20;;;;;;5046425;28;43493;-71
2022/05/09 08:00:22;;;;;;;1.00;1.00;;;24.00;55.40;;;;;;5046913;28;43959;-71
2022/05/09 08:02:50;;;;;;;1.30;1.30;;;24.00;55.30;;;;;;5043949;28;44028;-72
2022/05/09 08:05:19;;;;;;;1.20;1.20;;;24.00;55.30;;;;;;5046742;28;44028;-73
2022/05/09 08:07:48;;;;;;;1.10;1.10;;;24.00;55.20;;;;;;5046433;28;43958;-72
2022/05/09 08:10:16;;;;;;;1.20;1.20;;;24.00;55.20;;;;;;5046816;28;43937;-73
2022/05/09 08:12:44;;;;;;;1.30;1.30;;;24.00;55.10;;;;;;5047233;28;43938;-72
2022/05/09 08:15:13;;;;;;;1.10;1.10;;;24.00;55.30;;;;;;5046567;28;43953;-72
2022/05/09 08:17:44;;;;;;;1.13;1.13;;;24.00;55.20;;;;;;5044922;28;44728;-73
2022/05/09 08:20:15;;;;;;;1.20;1.20;;;24.00;55.30;;;;;;5046609;28;43984;-72
2022/05/09 08:22:45;;;;;;;1.20;1.20;;;24.00;55.20;;;;;;5047370;28;43302;-71
2022/05/09 08:25:14;;;;;;;1.13;1.13;;;24.00;55.30;;;;;;5028533;28;45902;-73
2022/05/09 08:27:43;;;;;;;1.20;1.20;;;24.00;55.30;;;;;;5046359;28;44078;-72
2022/05/09 08:30:12;;;;;;;1.20;1.20;;;24.00;55.40;;;;;;5046588;28;43890;-71
2022/05/09 08:32:43;;;;;;;1.10;1.10;;;24.00;55.50;;;;;;5047948;28;43766;-71
2022/05/09 08:35:13;;;;;;;1.23;1.23;;;24.00;55.40;;;;;;5043439;28;43679;-72
2022/05/09 08:37:43;;;;;;;1.20;1.20;;;24.00;55.40;;;;;;5036658;28;44089;-73
2022/05/09 08:40:13;;;;;;;1.30;1.30;;;24.00;55.40;;;;;;5050171;28;43877;-72
2022/05/09 08:42:44;;;;;;;1.30;1.30;;;24.00;55.40;;;;;;5048083;28;44028;-72
2022/05/09 08:45:21;;;;;;;1.10;1.10;;;24.00;55.50;;;;;;5049677;28;44024;-72
2022/05/09 08:48:23;;;;;;;1.13;1.13;;;24.00;55.50;;;;;;5049451;28;44025;-70
2022/05/09 08:51:03;;;;;;;1.20;1.20;;;24.00;55.50;;;;;;4982206;28;43913;-72
2022/05/09 08:53:34;;;;;;;1.20;1.20;;;24.00;55.50;;;;;;5025095;28;44172;-72
2022/05/09 08:56:03;;;;;;;1.20;1.20;;;23.90;55.50;;;;;;5049776;28;43938;-72
2022/05/09 08:58:39;;;;;;;1.10;1.10;;;23.90;55.60;;;;;;5049478;28;43898;-72
2022/05/09 09:01:16;;;;;;;1.20;1.20;;;23.90;55.60;;;;;;5031735;28;43427;-72
2022/05/09 09:03:48;;;;;;;1.20;1.20;;;23.90;55.80;;;;;;5050169;28;43418;-72
2022/05/09 09:06:22;;;;;;;1.00;1.00;;;23.90;55.70;;;;;;5050072;28;43592;-72
2022/05/09 09:08:58;;;;;;;1.23;1.23;;;23.90;55.80;;;;;;5049109;28;44080;-71
2022/05/09 09:11:32;;;;;;;0.90;0.90;;;23.80;55.60;;;;;;5037334;28;44023;-73
2022/05/09 09:14:06;;;;;;;1.20;1.20;;;23.80;55.70;;;;;;5049787;28;43416;-71
2022/05/09 09:16:52;;;;;;;1.10;1.10;;;23.80;55.80;;;;;;5049271;28;45135;-71
2022/05/09 09:19:33;;;;;;;1.20;1.20;;;23.80;56.40;;;;;;5049642;28;43980;-72
2022/05/09 09:22:04;;;;;;;1.20;1.20;;;23.80;55.90;;;;;;5043109;28;43980;-72
2022/05/09 09:24:39;;;;;;;1.10;1.10;;;23.80;56.00;;;;;;5043516;28;44058;-72
2022/05/09 09:27:13;;;;;;;1.10;1.10;;;23.80;56.00;;;;;;5049402;28;44060;-72
2022/05/09 09:29:46;;;;;;;1.03;1.03;;;23.80;56.00;;;;;;5049635;28;43404;-71
2022/05/09 09:32:18;;;;;;;1.10;1.10;;;23.70;56.00;;;;;;5049758;28;43395;-72
2022/05/09 09:34:51;;;;;;;1.23;1.23;;;23.70;56.00;;;;;;5049472;28;44090;-72
2022/05/09 09:37:20;;;;;;;1.00;1.00;;;23.70;56.10;;;;;;5049233;28;44011;-72
2022/05/09 09:39:48;;;;;;;1.10;1.10;;;23.70;56.10;;;;;;5048510;28;43880;-72
2022/05/09 09:42:18;;;;;;;1.20;1.20;;;23.70;56.10;;;;;;5049143;28;43939;-72
2022/05/09 09:44:47;;;;;;;1.40;1.40;;;23.70;56.40;;;;;;5048895;28;43953;-72
2022/05/09 09:47:23;;;;;;;1.10;1.10;;;23.70;56.20;;;;;;5049515;28;43961;-72
2022/05/09 09:50:13;;;;;;;1.10;1.10;;;23.70;56.30;;;;;;5044031;28;43520;-73
2022/05/09 09:52:43;;;;;;;1.10;1.10;;;23.70;56.40;;;;;;5047236;28;43958;-72
2022/05/09 09:55:24;;;;;;;1.07;1.07;;;23.60;56.30;;;;;;5049301;28;43450;-72
2022/05/09 09:57:54;;;;;;;1.00;1.00;;;23.60;56.40;;;;;;5046825;28;45582;-72
2022/05/09 10:00:24;;;;;;;1.00;1.00;;;23.60;56.40;;;;;;5048757;28;44048;-72
2022/05/09 10:02:53;;;;;;;1.10;1.10;;;23.60;56.50;;;;;;5048660;28;43815;-72
2022/05/09 10:05:31;;;;;;;1.10;1.10;;;23.60;56.40;;;;;;5048733;28;43899;-72
2022/05/09 10:07:59;;;;;;;1.30;1.30;;;23.60;56.50;;;;;;5048718;28;44028;-71
2022/05/09 10:10:28;;;;;;;1.00;1.00;;;23.60;56.50;;;;;;5048610;28;44067;-72
2022/05/09 10:12:59;;;;;;;1.10;1.10;;;23.60;56.60;;;;;;5042004;28;43980;-73
2022/05/09 10:15:29;;;;;;;1.13;1.13;;;23.50;56.40;;;;;;5042891;28;44020;-72
2022/05/09 10:17:58;;;;;;;1.17;1.17;;;23.60;56.60;;;;;;5048421;28;44254;-72
2022/05/09 10:20:33;;;;;;;1.10;1.10;;;23.50;56.60;;;;;;5030068;28;44986;-72
2022/05/09 10:26:00;;;;;;;1.13;1.13;;;23.50;56.60;;;;;;5047861;28;43874;-72
2022/05/09 10:28:32;;;;;;;1.20;1.20;;;23.50;56.70;;;;;;5048675;28;43956;-72
2022/05/09 10:31:03;;;;;;;1.10;1.10;;;23.50;56.60;;;;;;5048492;28;43938;-73
2022/05/09 10:33:34;;;;;;;1.00;1.00;;;23.50;56.50;;;;;;5037072;28;43891;-70
2022/05/09 10:36:04;;;;;;;1.10;1.10;;;23.60;56.60;;;;;;5042278;28;44089;-71
2022/05/09 10:38:38;;;;;;;1.10;1.10;;;23.60;56.50;;;;;;5029334;28;46640;-71
2022/05/09 10:41:13;;;;;;;1.30;1.30;;;23.60;56.50;;;;;;5047965;28;44093;-72
2022/05/09 10:43:45;;;;;;;1.20;1.20;;;23.60;56.70;;;;;;5047604;28;43978;-72
2022/05/09 10:46:13;;;;;;;1.03;1.03;;;23.60;56.60;;;;;;5048598;28;43983;-73
2022/05/09 10:48:45;;;;;;;1.10;1.10;;;23.60;56.60;;;;;;5029193;28;45869;-73
2022/05/09 10:51:15;;;;;;;1.00;1.00;;;23.60;56.50;;;;;;5047802;28;43960;-72
2022/05/09 10:54:05;;;;;;;1.00;1.00;;;23.60;56.50;;;;;;5048069;28;44015;-72
2022/05/09 10:56:39;;;;;;;1.10;1.10;;;23.60;56.60;;;;;;5040880;28;43980;-73
2022/05/09 10:59:12;;;;;;;1.10;1.10;;;23.60;56.60;;;;;;5047734;28;44885;-72
2022/05/09 11:01:45;;;;;;;1.20;1.20;;;23.50;56.70;;;;;;5047151;28;44023;-72
2022/05/09 11:04:14;;;;;;;1.10;1.10;;;23.50;56.80;;;;;;5047275;28;43949;-72
2022/05/09 11:06:47;;;;;;;1.13;1.13;;;23.40;56.90;;;;;;5047690;28;43878;-72
2022/05/09 11:09:28;;;;;;;1.13;1.13;;;23.40;57.00;;;;;;5045372;28;45555;-72
2022/05/09 11:12:03;;;;;;;1.10;1.10;;;23.40;57.20;;;;;;5047228;28;43941;-72
2022/05/09 11:14:37;;;;;;;1.20;1.20;;;23.30;57.30;;;;;;5047422;28;43934;-72
2022/05/09 11:17:14;;;;;;;1.00;1.00;;;23.30;57.30;;;;;;5041768;28;43365;-72
2022/05/09 11:19:49;;;;;;;1.10;1.10;;;23.30;57.30;;;;;;5045488;28;47397;-73
2022/05/09 11:22:20;;;;;;;1.03;1.03;;;23.20;57.30;;;;;;5047631;28;43929;-72
2022/05/09 11:24:56;;;;;;;1.10;1.10;;;23.20;57.50;;;;;;5047292;28;44029;-71
2022/05/09 11:27:31;;;;;;;1.10;1.10;;;23.20;57.50;;;;;;5047499;28;43960;-72
2022/05/09 11:30:30;;;;;;;1.00;1.00;;;23.10;57.60;;;;;;5040752;28;43855;-72
2022/05/09 11:33:09;;;;;;;1.30;1.30;;;23.10;57.70;;;;;;5046883;28;44113;-72
2022/05/09 11:35:37;;;;;;;1.10;1.10;;;23.10;57.70;;;;;;5046957;28;44020;-72
2022/05/09 11:38:33;;;;;;;1.13;1.13;;;23.10;57.80;;;;;;5047617;28;43810;-71
2022/05/09 11:41:08;;;;;;;1.23;1.23;;;23.10;57.60;;;;;;5038055;28;43797;-73
2022/05/09 11:43:53;;;;;;;1.23;1.23;;;23.10;57.50;;;;;;5028169;28;44326;-72
2022/05/09 11:46:29;;;;;;;1.20;1.20;;;23.10;57.60;;;;;;5046946;28;43420;-72
2022/05/09 11:49:06;;;;;;;6.73;1.47;;;23.10;57.70;;;;;;5047130;28;43959;-72
2022/05/09 11:51:40;;;;;;;3.03;1.30;;;23.10;58.00;;;;;;5021590;28;44954;-71
2022/05/09 11:54:09;;;;;;;1.20;1.20;;;23.00;58.00;;;;;;5027958;28;44513;-72
2022/05/09 11:56:37;;;;;;;1.53;1.20;;;23.00;58.00;;;;;;5046681;28;44004;-71
2022/05/09 11:59:05;;;;;;;1.37;1.20;;;23.00;57.80;;;;;;5047134;28;43852;-71
2022/05/09 12:01:57;;;;;;;1.30;1.30;;;23.00;58.20;;;;;;5046174;28;43960;-71
2022/05/09 12:04:30;;;;;;;1.10;1.10;;;22.90;58.20;;;;;;5046708;28;43960;-72
2022/05/09 12:06:58;;;;;;;1.60;1.50;;;22.90;58.20;;;;;;5046349;28;43996;-72
2022/05/09 12:09:56;;;;;;;1.20;1.20;;;22.90;58.30;;;;;;5046770;28;44006;-70
2022/05/09 12:12:44;;;;;;;1.20;1.20;;;22.90;58.40;;;;;;5046584;28;44165;-71
2022/05/09 12:15:41;;;;;;;1.30;1.30;;;22.90;58.40;;;;;;5045981;28;43439;-71
2022/05/09 12:18:33;;;;;;;1.30;1.30;;;22.90;58.50;;;;;;5046472;28;43444;-72
2022/05/09 12:21:24;;;;;;;1.40;1.40;;;22.80;58.40;;;;;;5043129;28;43948;-71
2022/05/09 12:24:34;;;;;;;1.60;1.40;;;22.80;58.40;;;;;;5041657;28;43903;-72
2022/05/09 12:27:04;;;;;;;1.50;1.50;;;22.80;58.50;;;;;;5027900;28;44982;-71
2022/05/09 12:29:50;;;;;;;1.40;1.40;;;22.80;58.50;;;;;;5043393;28;43957;-71
2022/05/09 12:32:19;;;;;;;1.40;1.40;;;22.80;58.60;;;;;;5046757;28;43999;-72
2022/05/09 12:34:48;;;;;;;1.67;1.40;;;22.80;58.70;;;;;;5046129;28;43741;-72
2022/05/09 12:37:29;;;;;;;1.70;1.60;;;22.80;58.80;;;;;;5046070;28;43879;-73
2022/05/09 12:39:57;;;;;;;1.93;1.63;;;22.80;58.80;;;;;;5046147;28;43989;-71
2022/05/09 12:42:34;;;;;;;1.50;1.50;;;22.70;58.90;;;;;;5027841;28;44294;-71
2022/05/09 12:45:04;;;;;;;2.20;1.80;;;22.60;59.20;;;;;;5039815;28;44029;-72
2022/05/09 12:47:34;;;;;;;1.60;1.60;;;22.40;59.30;;;;;;5045630;28;44060;-72
2022/05/09 12:50:06;;;;;;;1.40;1.40;;;22.20;59.80;;;;;;5045627;28;44056;-71
2022/05/09 12:52:36;;;;;;;1.60;1.60;;;22.10;60.50;;;;;;5027879;28;44042;-72
2022/05/09 12:57:56;;;;;;;2.00;1.90;;;21.80;61.70;;;;;;5045989;28;44011;-71
2022/05/09 13:00:25;;;;;;;1.60;1.60;;;21.60;62.00;;;;;;5046045;28;43999;-71
2022/05/09 13:03:13;;;;;;;1.60;1.60;;;21.60;62.50;;;;;;5040672;28;44037;-72
2022/05/09 13:05:44;;;;;;;1.67;1.67;;;21.50;62.70;;;;;;5045420;28;44797;-72
2022/05/09 13:08:14;;;;;;;1.53;1.53;;;21.40;63.00;;;;;;5045763;28;43869;-71
2022/05/09 13:10:50;;;;;;;2.60;1.60;;;21.30;63.10;;;;;;5027164;28;43944;-70
2022/05/09 13:13:29;;;;;;;1.67;1.67;;;21.30;63.30;;;;;;5046606;28;43708;-72
2022/05/09 13:15:57;;;;;;;1.60;1.60;;;21.20;63.50;;;;;;5045191;28;44031;-71
2022/05/09 13:18:26;;;;;;;1.70;1.70;;;21.20;63.70;;;;;;5027919;28;44728;-71
2022/05/09 13:20:58;;;;;;;1.80;1.80;;;21.20;63.70;;;;;;5031011;28;43401;-72